Pilot_Dan1’s ATC Tracking Thread - [Closed] @KFAT [Passed Written]

Hello!
I am currently in the proces to become an IFATC.
So this will be my ATC Tracking Thread to become better at controlling.

When?

N/A
(This depends on How many and might increase or decrease)

Airport

KFAT

Server

Training

Controlling:

Ground and Tower

Status

Closed

I will be updating this to when I am Open and not

1 Like

Reminding that will have a 20 minute session today

Open Now!

METAR: 151355Z AUTO 32014KT 10SM BKN034 OVC050 05/M03 A2995 RMK AO2 T00521026

Runway in use: 05L/R

Closing now

Will Open up at KFAT 2021-04-24T10:00:00Z, one hour until I open up

METAR for today: METAR KFAT 240853Z 29010KT 10SM BKN200 13/06 A2999 RMK AO2 SLP152 T01330061 51007

Runways in use: 29L/R

This topic was automatically closed 90 days after the last reply. New replies are no longer allowed.